createdAt,value
2019-02-11T00:00:50.820Z,8.00
2019-02-11T00:03:19.509Z,8.10
2019-02-11T00:05:48.107Z,8.10
2019-02-11T00:08:16.766Z,8.10
2019-02-11T00:10:45.326Z,8.10
2019-02-11T00:13:13.903Z,8.00
2019-02-11T00:15:42.606Z,8.10
2019-02-11T00:18:11.506Z,8.00
2019-02-11T00:20:40.050Z,8.00
2019-02-11T00:23:08.735Z,8.00
2019-02-11T00:25:37.315Z,8.00
2019-02-11T00:28:06.206Z,8.00
2019-02-11T00:30:34.829Z,8.00
2019-02-11T00:33:03.413Z,8.00
2019-02-11T00:35:31.993Z,8.00
2019-02-11T00:38:00.590Z,8.00
2019-02-11T00:40:29.250Z,8.00
2019-02-11T00:42:57.889Z,8.00
2019-02-11T00:45:26.675Z,8.10
2019-02-11T00:47:55.391Z,8.10
2019-02-11T00:50:23.942Z,8.00
2019-02-11T00:52:52.531Z,8.10
2019-02-11T00:55:21.142Z,8.20
2019-02-11T00:57:49.678Z,8.20
2019-02-11T01:00:18.206Z,8.20
2019-02-11T01:02:46.752Z,8.10
2019-02-11T01:05:34.683Z,8.10
2019-02-11T01:08:03.644Z,8.00
2019-02-11T01:10:32.275Z,8.00
2019-02-11T01:13:00.873Z,8.10
2019-02-11T01:15:29.574Z,8.10
2019-02-11T01:17:58.157Z,8.10
2019-02-11T01:20:26.743Z,8.10
2019-02-11T01:22:55.324Z,8.10
2019-02-11T01:25:23.911Z,8.10
2019-02-11T01:27:52.646Z,8.30
2019-02-11T01:30:21.816Z,8.30
2019-02-11T01:32:50.538Z,8.30
2019-02-11T01:35:19.195Z,8.30
2019-02-11T01:37:47.903Z,8.40
2019-02-11T01:40:16.544Z,8.40
2019-02-11T01:42:45.153Z,8.30
2019-02-11T01:45:14.034Z,8.40
2019-02-11T01:47:42.803Z,8.40
2019-02-11T01:50:13.131Z,8.40
2019-02-11T01:52:41.714Z,8.40
2019-02-11T01:55:10.933Z,8.40
2019-02-11T01:57:39.701Z,8.50
2019-02-11T02:00:13.264Z,8.50
2019-02-11T02:02:42.348Z,8.50
2019-02-11T02:05:10.916Z,8.40
2019-02-11T02:07:39.571Z,8.50
2019-02-11T02:10:14.000Z,8.50
2019-02-11T02:12:42.625Z,8.50
2019-02-11T02:15:13.872Z,8.50
2019-02-11T02:17:42.609Z,8.50
2019-02-11T02:20:15.317Z,8.50
2019-02-11T02:22:43.907Z,8.50
2019-02-11T02:25:12.964Z,8.50
2019-02-11T02:27:41.551Z,8.50
2019-02-11T02:30:14.219Z,8.50
2019-02-11T02:32:42.899Z,8.50
2019-02-11T02:35:11.520Z,8.50
2019-02-11T02:37:40.136Z,8.50
2019-02-11T02:40:10.272Z,8.50
2019-02-11T02:42:38.911Z,8.50
2019-02-11T02:45:09.767Z,8.50
2019-02-11T02:47:38.616Z,8.40
2019-02-11T02:50:09.904Z,8.40
2019-02-11T02:52:38.514Z,8.40
2019-02-11T02:55:08.567Z,8.30
2019-02-11T02:57:37.154Z,8.30
2019-02-11T03:00:25.157Z,8.30
2019-02-11T03:02:53.888Z,8.40
2019-02-11T03:05:22.478Z,8.40
2019-02-11T03:07:51.102Z,8.30
2019-02-11T03:10:19.686Z,8.30
2019-02-11T03:12:48.247Z,8.30
2019-02-11T03:15:17.117Z,8.30
2019-02-11T03:17:45.674Z,8.30
2019-02-11T03:20:14.385Z,8.30
2019-02-11T03:22:42.983Z,8.30
2019-02-11T03:25:11.746Z,8.30
2019-02-11T03:27:40.282Z,8.30
2019-02-11T03:30:10.374Z,8.30
2019-02-11T03:32:39.032Z,8.30
2019-02-11T03:35:08.356Z,8.10
2019-02-11T03:37:36.961Z,8.00
2019-02-11T03:40:08.184Z,7.90
2019-02-11T03:42:36.808Z,7.90
2019-02-11T03:45:08.690Z,7.80
2019-02-11T03:47:37.268Z,7.70
2019-02-11T03:50:08.483Z,7.50
2019-02-11T03:52:37.041Z,7.50
2019-02-11T03:55:07.309Z,7.40
2019-02-11T03:57:36.032Z,7.40
2019-02-11T04:00:07.078Z,7.20
2019-02-11T04:02:35.630Z,7.20
2019-02-11T04:05:05.234Z,7.10
2019-02-11T04:07:33.826Z,7.00
2019-02-11T04:10:02.549Z,7.00
2019-02-11T04:12:31.202Z,7.00
2019-02-11T04:14:59.869Z,6.90
2019-02-11T04:17:28.516Z,6.90
2019-02-11T04:19:57.211Z,6.90
2019-02-11T04:22:25.790Z,6.90
2019-02-11T04:24:54.538Z,6.80
2019-02-11T04:27:23.203Z,6.90
2019-02-11T04:29:51.773Z,6.80
2019-02-11T04:32:20.432Z,6.80
2019-02-11T04:34:49.019Z,6.80
2019-02-11T04:37:17.573Z,6.90
2019-02-11T04:39:46.245Z,6.90
2019-02-11T04:42:14.865Z,6.90
2019-02-11T04:44:43.480Z,6.90
2019-02-11T04:47:12.065Z,6.90
2019-02-11T04:49:40.662Z,6.90
2019-02-11T04:52:09.526Z,7.00
2019-02-11T04:54:44.537Z,6.90
2019-02-11T04:57:13.194Z,7.00
2019-02-11T04:59:41.976Z,6.90
2019-02-11T05:02:10.637Z,6.90
2019-02-11T05:04:58.552Z,6.80
2019-02-11T05:07:27.149Z,6.80
2019-02-11T05:09:55.744Z,6.80
2019-02-11T05:12:24.300Z,6.80
2019-02-11T05:14:52.891Z,6.80
2019-02-11T05:17:21.576Z,6.80
2019-02-11T05:19:50.232Z,6.80
2019-02-11T05:22:18.965Z,6.80
2019-02-11T05:24:47.556Z,6.90
2019-02-11T05:27:16.104Z,6.90
2019-02-11T05:29:44.979Z,6.90
2019-02-11T05:32:13.807Z,6.90
2019-02-11T05:34:42.578Z,6.90
2019-02-11T05:37:11.118Z,6.90
2019-02-11T05:39:39.744Z,6.90
2019-02-11T05:42:08.339Z,6.80
2019-02-11T05:44:37.142Z,6.80
2019-02-11T05:47:05.826Z,6.70
2019-02-11T05:49:34.369Z,6.80
2019-02-11T05:52:03.156Z,6.80
2019-02-11T05:54:31.715Z,6.90
2019-02-11T05:57:00.452Z,6.80
2019-02-11T05:59:29.006Z,6.80
2019-02-11T06:01:57.699Z,6.90
2019-02-11T06:04:26.546Z,6.90
2019-02-11T06:06:55.292Z,6.80
2019-02-11T06:09:23.866Z,6.80
2019-02-11T06:11:52.753Z,6.90
2019-02-11T06:14:21.237Z,6.90
2019-02-11T06:16:50.024Z,7.00
2019-02-11T06:19:18.608Z,6.90
2019-02-11T06:21:47.414Z,6.90
2019-02-11T06:24:16.096Z,6.80
2019-02-11T06:26:44.672Z,6.80
2019-02-11T06:29:13.254Z,6.80
2019-02-11T06:31:41.847Z,6.80
2019-02-11T06:34:10.732Z,6.70
2019-02-11T06:36:39.518Z,6.80
2019-02-11T06:39:08.135Z,6.90
2019-02-11T06:41:36.952Z,6.90
2019-02-11T06:44:05.644Z,6.80
2019-02-11T06:46:34.295Z,6.80
2019-02-11T06:49:02.916Z,6.80
2019-02-11T06:51:32.049Z,6.90
2019-02-11T06:54:00.793Z,7.00
2019-02-11T06:56:29.339Z,7.00
2019-02-11T06:58:57.990Z,7.00
2019-02-11T07:01:26.716Z,7.00
2019-02-11T07:03:55.331Z,6.90
2019-02-11T07:06:23.982Z,6.90
2019-02-11T07:08:52.582Z,6.80
2019-02-11T07:11:21.379Z,6.80
2019-02-11T07:13:50.047Z,6.70
2019-02-11T07:16:18.822Z,6.70
2019-02-11T07:18:47.428Z,6.70
2019-02-11T07:21:16.222Z,6.70
2019-02-11T07:23:44.930Z,6.80
2019-02-11T07:26:13.556Z,6.70
2019-02-11T07:28:42.359Z,6.70
2019-02-11T07:31:11.248Z,6.70
2019-02-11T07:33:40.016Z,6.70
2019-02-11T07:36:09.643Z,6.70
2019-02-11T07:38:38.248Z,6.70
2019-02-11T07:41:07.066Z,6.70
2019-02-11T07:43:37.319Z,6.70
2019-02-11T07:46:07.710Z,6.60
2019-02-11T07:48:36.271Z,6.60
2019-02-11T07:51:05.216Z,6.60
2019-02-11T07:53:33.995Z,6.60
2019-02-11T07:56:02.493Z,6.60
2019-02-11T07:58:31.092Z,6.70
2019-02-11T08:00:59.695Z,6.70
2019-02-11T08:03:28.299Z,6.70
2019-02-11T08:06:02.698Z,6.80
2019-02-11T08:08:31.322Z,6.70
2019-02-11T08:10:59.983Z,6.80
2019-02-11T08:13:48.082Z,6.80
2019-02-11T08:16:18.896Z,6.80
2019-02-11T08:18:49.097Z,6.90
2019-02-11T08:21:17.967Z,6.80
2019-02-11T08:23:46.566Z,6.80
2019-02-11T08:26:15.181Z,6.80
2019-02-11T08:28:43.763Z,6.80
2019-02-11T08:31:12.551Z,6.70
2019-02-11T08:33:41.547Z,6.70
2019-02-11T08:36:10.460Z,6.70
2019-02-11T08:38:39.078Z,6.80
2019-02-11T08:41:07.710Z,6.80
2019-02-11T08:43:36.413Z,6.90
2019-02-11T08:46:05.157Z,6.90
2019-02-11T08:48:33.847Z,6.90
2019-02-11T08:51:02.415Z,6.90
2019-02-11T08:53:31.200Z,6.90
2019-02-11T08:55:59.827Z,7.00
2019-02-11T08:58:28.679Z,7.00
2019-02-11T09:01:06.125Z,7.00
2019-02-11T09:03:34.753Z,7.00
2019-02-11T09:06:03.828Z,7.10
2019-02-11T09:08:32.418Z,7.00
2019-02-11T09:11:01.043Z,7.10
2019-02-11T09:13:31.439Z,7.00
2019-02-11T09:16:00.424Z,7.10
2019-02-11T09:18:29.363Z,7.10
2019-02-11T09:20:57.949Z,7.10
2019-02-11T09:23:26.709Z,7.10
2019-02-11T09:25:55.343Z,7.20
2019-02-11T09:28:24.181Z,7.20
2019-02-11T09:30:52.821Z,7.30
2019-02-11T09:33:21.469Z,7.30
2019-02-11T09:35:50.238Z,7.30
2019-02-11T09:38:18.846Z,7.40
2019-02-11T09:40:47.453Z,7.40
2019-02-11T09:43:16.237Z,7.40
2019-02-11T09:45:44.991Z,7.40
2019-02-11T09:48:13.651Z,7.50
2019-02-11T09:50:45.051Z,7.50
2019-02-11T09:53:13.994Z,7.50
2019-02-11T09:55:42.606Z,7.50
2019-02-11T09:58:11.334Z,7.60
2019-02-11T10:00:39.980Z,7.60
2019-02-11T10:03:08.636Z,7.60
2019-02-11T10:05:37.248Z,7.60
2019-02-11T10:08:07.512Z,7.60
2019-02-11T10:10:36.120Z,7.60
2019-02-11T10:13:04.782Z,7.60
2019-02-11T10:15:33.433Z,7.60
2019-02-11T10:18:02.046Z,7.70
2019-02-11T10:20:30.744Z,7.60
2019-02-11T10:22:59.498Z,7.70
2019-02-11T10:25:30.378Z,7.70
2019-02-11T10:28:10.145Z,7.70
2019-02-11T10:30:38.833Z,7.70
2019-02-11T10:33:07.697Z,7.60
2019-02-11T10:35:42.105Z,7.60
2019-02-11T10:38:07.094Z,7.60
2019-02-11T10:40:35.843Z,7.50
2019-02-11T10:43:04.390Z,7.60
2019-02-11T10:45:36.623Z,7.70
2019-02-11T10:48:05.315Z,7.70
2019-02-11T10:50:34.063Z,7.70
2019-02-11T10:53:02.676Z,7.60
2019-02-11T10:55:31.615Z,7.70
2019-02-11T10:58:00.180Z,7.70
2019-02-11T11:00:29.183Z,7.70
2019-02-11T11:02:58.049Z,7.80
2019-02-11T11:05:27.657Z,7.80
2019-02-11T11:08:02.248Z,7.90
2019-02-11T11:10:33.782Z,7.70
2019-02-11T11:13:02.555Z,7.90
2019-02-11T11:15:32.046Z,7.90
2019-02-11T11:18:00.712Z,7.90
2019-02-11T11:20:29.707Z,7.90
2019-02-11T11:22:58.356Z,7.90
2019-02-11T11:25:27.027Z,7.90
2019-02-11T11:27:55.737Z,7.90
2019-02-11T11:30:24.659Z,8.00
2019-02-11T11:32:53.294Z,8.00
2019-02-11T11:35:22.306Z,8.00
2019-02-11T11:37:50.870Z,8.10
2019-02-11T11:40:21.658Z,8.10
2019-02-11T11:42:50.603Z,8.20
2019-02-11T11:45:22.293Z,8.10
2019-02-11T11:47:51.407Z,8.10
2019-02-11T11:50:20.018Z,8.10
2019-02-11T11:52:48.610Z,8.10
2019-02-11T11:55:22.586Z,8.20
2019-02-11T11:57:51.072Z,8.10
2019-02-11T12:00:30.354Z,8.10
2019-02-11T12:03:05.647Z,8.00
2019-02-11T12:05:34.911Z,8.00
2019-02-11T12:08:03.629Z,8.00
2019-02-11T12:10:32.279Z,8.00
2019-02-11T12:13:20.462Z,7.90
2019-02-11T12:15:31.358Z,7.90
2019-02-11T12:18:00.286Z,7.80
2019-02-11T12:20:32.772Z,7.80
2019-02-11T12:22:59.095Z,7.80
2019-02-11T12:25:29.429Z,7.70
2019-02-11T12:27:58.130Z,7.80
2019-02-11T12:30:28.188Z,7.90
2019-02-11T12:32:56.889Z,7.90
2019-02-11T12:35:25.929Z,8.00
2019-02-11T12:37:55.152Z,8.00
2019-02-11T12:40:23.719Z,8.10
2019-02-11T12:42:53.412Z,8.20
2019-02-11T12:45:24.895Z,8.20
2019-02-11T12:47:53.494Z,8.30
2019-02-11T12:50:22.278Z,8.30
2019-02-11T12:52:51.051Z,8.30
2019-02-11T12:55:21.895Z,8.40
2019-02-11T12:57:50.711Z,8.40
2019-02-11T13:00:21.778Z,8.40
2019-02-11T13:02:50.615Z,8.50
2019-02-11T13:05:22.858Z,8.50
2019-02-11T13:07:50.777Z,8.50
2019-02-11T13:10:20.440Z,8.60
2019-02-11T13:12:49.329Z,8.50
2019-02-11T13:15:53.970Z,8.50
2019-02-11T13:17:57.499Z,8.40
2019-02-11T13:20:26.453Z,8.50
2019-02-11T13:22:55.099Z,8.50
2019-02-11T13:25:24.953Z,8.50
2019-02-11T13:27:53.632Z,8.50
2019-02-11T13:30:24.821Z,8.50
2019-02-11T13:32:53.461Z,8.50
2019-02-11T13:35:23.578Z,8.60
2019-02-11T13:37:55.080Z,8.60
2019-02-11T13:40:22.536Z,8.60
2019-02-11T13:42:51.366Z,8.60
2019-02-11T13:45:21.955Z,8.50
2019-02-11T13:47:56.397Z,8.60
2019-02-11T13:50:23.706Z,8.60
2019-02-11T13:52:52.868Z,8.60
2019-02-11T13:55:22.795Z,8.70
2019-02-11T13:57:52.252Z,8.70
2019-02-11T14:00:33.702Z,8.80
2019-02-11T14:03:04.616Z,8.80
2019-02-11T14:05:34.075Z,8.90
2019-02-11T14:08:03.203Z,8.90
2019-02-11T14:10:32.569Z,8.90
2019-02-11T14:13:01.438Z,8.90
2019-02-11T14:15:30.088Z,8.90
2019-02-11T14:18:13.992Z,9.00
2019-02-11T14:20:40.365Z,9.00
2019-02-11T14:23:09.110Z,8.90
2019-02-11T14:25:44.453Z,8.80
2019-02-11T14:28:08.266Z,8.80
2019-02-11T14:30:36.977Z,8.80
2019-02-11T14:33:06.509Z,8.80
2019-02-11T14:35:35.219Z,8.90
2019-02-11T14:38:03.975Z,9.00
2019-02-11T14:40:32.491Z,8.90
2019-02-11T14:43:02.329Z,9.00
2019-02-11T14:45:32.857Z,9.00
2019-02-11T14:48:01.525Z,9.00
2019-02-11T14:50:30.150Z,9.00
2019-02-11T14:52:58.900Z,8.90
2019-02-11T14:55:27.831Z,9.00
2019-02-11T14:57:57.809Z,9.00
2019-02-11T15:00:30.443Z,9.00
2019-02-11T15:03:01.267Z,9.00
2019-02-11T15:05:29.979Z,9.00
2019-02-11T15:07:58.513Z,9.00
2019-02-11T15:10:27.273Z,8.90
2019-02-11T15:12:55.857Z,9.00
2019-02-11T15:15:24.822Z,9.00
2019-02-11T15:17:53.434Z,9.00
2019-02-11T15:20:22.152Z,9.00
2019-02-11T15:22:52.290Z,9.00
2019-02-11T15:25:20.854Z,9.00
2019-02-11T15:27:49.483Z,8.90
2019-02-11T15:30:20.148Z,8.80
2019-02-11T15:32:48.903Z,8.80
2019-02-11T15:35:17.532Z,8.80
2019-02-11T15:37:46.178Z,8.80
2019-02-11T15:40:22.802Z,8.80
2019-02-11T15:42:51.849Z,8.90
2019-02-11T15:45:20.483Z,8.80
2019-02-11T15:47:50.697Z,8.80
2019-02-11T15:50:20.268Z,8.80
2019-02-11T15:52:49.144Z,8.90
2019-02-11T15:55:19.885Z,8.80
2019-02-11T15:57:48.862Z,8.80
2019-02-11T16:00:20.149Z,8.80
2019-02-11T16:02:51.692Z,8.90
2019-02-11T16:05:20.718Z,8.90
2019-02-11T16:07:49.457Z,8.90
2019-02-11T16:10:23.956Z,9.00
2019-02-11T16:12:55.559Z,9.00
2019-02-11T16:15:24.301Z,8.90
2019-02-11T16:17:52.991Z,9.00
2019-02-11T16:20:22.044Z,9.00
2019-02-11T16:22:50.611Z,8.90
2019-02-11T16:25:19.351Z,9.00
2019-02-11T16:27:47.970Z,9.00
2019-02-11T16:30:19.776Z,8.90
2019-02-11T16:32:48.372Z,8.90
2019-02-11T16:35:18.198Z,8.80
2019-02-11T16:37:47.060Z,8.80
2019-02-11T16:40:21.270Z,8.70
2019-02-11T16:42:49.823Z,8.60
2019-02-11T16:45:18.516Z,8.60
2019-02-11T16:47:47.076Z,8.70
2019-02-11T16:50:17.706Z,8.70
2019-02-11T16:52:48.275Z,8.70
2019-02-11T16:55:16.743Z,8.70
2019-02-11T16:57:45.557Z,8.80
2019-02-11T17:00:19.591Z,8.80
2019-02-11T17:02:48.342Z,8.80
2019-02-11T17:05:17.227Z,8.80
2019-02-11T17:07:48.754Z,8.80
2019-02-11T17:10:17.391Z,8.90
2019-02-11T17:12:46.161Z,8.80
2019-02-11T17:15:21.383Z,8.80
2019-02-11T17:17:50.227Z,8.80
2019-02-11T17:20:18.855Z,8.80
2019-02-11T17:22:47.427Z,8.80
2019-02-11T17:25:16.139Z,8.90
2019-02-11T17:27:44.821Z,8.80
2019-02-11T17:30:16.565Z,8.90
2019-02-11T17:32:45.230Z,9.00
2019-02-11T17:35:13.863Z,9.00
2019-02-11T17:37:43.958Z,9.00
2019-02-11T17:40:14.548Z,9.00
2019-02-11T17:42:43.289Z,8.90
2019-02-11T17:45:14.578Z,8.80
2019-02-11T17:47:43.204Z,8.80
2019-02-11T17:50:12.362Z,8.80
2019-02-11T17:52:40.970Z,8.70
2019-02-11T17:55:14.591Z,8.80
2019-02-11T17:57:43.868Z,8.70
2019-02-11T18:00:31.858Z,8.70
2019-02-11T18:03:00.542Z,8.70
2019-02-11T18:05:29.365Z,8.70
2019-02-11T18:07:59.591Z,8.70
2019-02-11T18:10:28.356Z,8.70
2019-02-11T18:12:57.083Z,8.60
2019-02-11T18:15:25.647Z,8.60
2019-02-11T18:17:54.319Z,8.60
2019-02-11T18:20:22.951Z,8.60
2019-02-11T18:22:51.632Z,8.60
2019-02-11T18:25:20.244Z,8.60
2019-02-11T18:27:49.080Z,8.70
2019-02-11T18:30:17.820Z,8.70
2019-02-11T18:32:46.959Z,8.70
2019-02-11T18:35:18.038Z,8.80
2019-02-11T18:37:46.779Z,8.80
2019-02-11T18:40:16.210Z,8.80
2019-02-11T18:42:44.833Z,8.70
2019-02-11T18:45:16.624Z,8.70
2019-02-11T18:47:45.486Z,8.80
2019-02-11T18:50:15.656Z,8.70
2019-02-11T18:52:44.188Z,8.70
2019-02-11T18:55:17.744Z,8.70
2019-02-11T18:57:46.419Z,8.70
2019-02-11T19:00:18.484Z,8.80
2019-02-11T19:02:47.956Z,8.70
2019-02-11T19:05:17.663Z,8.70
2019-02-11T19:07:46.444Z,8.60
2019-02-11T19:10:16.872Z,8.60
2019-02-11T19:12:45.755Z,8.70
2019-02-11T19:15:16.404Z,8.70
2019-02-11T19:17:45.018Z,8.70
2019-02-11T19:20:17.769Z,8.70
2019-02-11T19:22:46.374Z,8.60
2019-02-11T19:25:14.979Z,8.60
2019-02-11T19:27:43.659Z,8.70
2019-02-11T19:30:21.024Z,8.70
2019-02-11T19:32:49.731Z,8.70
2019-02-11T19:35:19.178Z,8.60
2019-02-11T19:37:47.826Z,8.70
2019-02-11T19:40:18.311Z,8.70
2019-02-11T19:42:46.903Z,8.70
2019-02-11T19:45:20.849Z,8.70
2019-02-11T19:47:49.518Z,8.60
2019-02-11T19:50:19.207Z,8.60
2019-02-11T19:52:48.509Z,8.50
2019-02-11T19:55:17.548Z,8.50
2019-02-11T19:57:46.280Z,8.50
2019-02-11T20:00:18.187Z,8.50
2019-02-11T20:02:47.209Z,8.50
2019-02-11T20:05:15.896Z,8.50
2019-02-11T20:07:44.856Z,8.50
2019-02-11T20:10:16.154Z,8.50
2019-02-11T20:12:44.692Z,8.50
2019-02-11T20:15:15.935Z,8.60
2019-02-11T20:17:45.208Z,8.60
2019-02-11T20:20:18.984Z,8.50
2019-02-11T20:22:47.581Z,8.50
2019-02-11T20:25:16.177Z,8.50
2019-02-11T20:27:44.739Z,8.50
2019-02-11T20:30:16.756Z,8.50
2019-02-11T20:32:45.507Z,8.50
2019-02-11T20:35:14.743Z,8.40
2019-02-11T20:37:43.411Z,8.30
2019-02-11T20:40:17.466Z,8.20
2019-02-11T20:42:46.037Z,8.10
2019-02-11T20:45:20.673Z,7.90
2019-02-11T20:47:49.261Z,7.80
2019-02-11T20:50:17.894Z,7.70
2019-02-11T20:52:46.538Z,7.70
2019-02-11T20:55:15.463Z,7.60
2019-02-11T20:57:45.428Z,7.60
2019-02-11T21:00:16.918Z,7.60
2019-02-11T21:03:08.486Z,7.60
2019-02-11T21:05:35.360Z,7.50
2019-02-11T21:08:04.220Z,7.60
2019-02-11T21:10:32.786Z,7.60
2019-02-11T21:13:01.367Z,7.60
2019-02-11T21:15:29.983Z,7.60
2019-02-11T21:17:58.804Z,7.60
2019-02-11T21:20:33.416Z,7.50
2019-02-11T21:23:01.990Z,7.50
2019-02-11T21:25:30.535Z,7.60
2019-02-11T21:27:59.258Z,7.60
2019-02-11T21:30:27.881Z,7.60
2019-02-11T21:32:56.424Z,7.60
2019-02-11T21:35:25.851Z,7.70
2019-02-11T21:37:54.483Z,7.70
2019-02-11T21:40:23.214Z,7.60
2019-02-11T21:42:51.946Z,7.60
2019-02-11T21:45:20.430Z,7.70
2019-02-11T21:47:48.972Z,7.80
2019-02-11T21:50:26.409Z,7.70
2019-02-11T21:52:49.771Z,7.60
2019-02-11T21:55:20.480Z,7.70
2019-02-11T21:57:49.134Z,7.60
2019-02-11T22:00:20.416Z,7.60
2019-02-11T22:02:49.173Z,7.60
2019-02-11T22:05:17.842Z,7.70
2019-02-11T22:07:46.456Z,7.70
2019-02-11T22:10:23.011Z,7.70
2019-02-11T22:12:51.630Z,7.60
2019-02-11T22:15:20.235Z,7.60
2019-02-11T22:17:49.270Z,7.60
2019-02-11T22:20:19.906Z,7.60
2019-02-11T22:22:48.834Z,7.60
2019-02-11T22:25:17.491Z,7.50
2019-02-11T22:27:46.111Z,7.40
2019-02-11T22:30:20.529Z,7.40
2019-02-11T22:32:49.148Z,7.40
2019-02-11T22:35:17.799Z,7.30
2019-02-11T22:37:48.427Z,7.40
2019-02-11T22:40:17.152Z,7.30
2019-02-11T22:42:45.904Z,7.20
2019-02-11T22:45:16.952Z,7.20
2019-02-11T22:47:45.490Z,7.20
2019-02-11T22:50:14.414Z,7.30
2019-02-11T22:52:43.047Z,7.30
2019-02-11T22:55:31.004Z,7.20
2019-02-11T22:57:59.715Z,7.20
2019-02-11T23:00:35.836Z,7.10
2019-02-11T23:03:05.568Z,7.00
2019-02-11T23:05:34.245Z,7.00
2019-02-11T23:08:02.827Z,7.10
2019-02-11T23:10:31.508Z,7.10
2019-02-11T23:13:00.048Z,7.10
2019-02-11T23:15:28.587Z,7.10
2019-02-11T23:17:58.495Z,7.00
2019-02-11T23:20:27.711Z,7.00
2019-02-11T23:22:56.347Z,6.90
2019-02-11T23:25:24.896Z,6.80
2019-02-11T23:27:53.656Z,6.90
2019-02-11T23:30:22.372Z,6.90
2019-02-11T23:32:51.018Z,6.90
2019-02-11T23:35:19.674Z,6.80
2019-02-11T23:37:48.451Z,6.80
2019-02-11T23:40:16.989Z,6.80
2019-02-11T23:42:45.794Z,6.90
2019-02-11T23:45:14.447Z,6.90
2019-02-11T23:47:43.072Z,6.90
2019-02-11T23:50:12.475Z,7.00
2019-02-11T23:52:41.037Z,7.10
2019-02-11T23:55:10.563Z,6.90
2019-02-11T23:57:39.126Z,6.90
